Time;durP1;ratioP1;P1;durP2;ratioP2;P2;SDS_P1;SDS_P2;PMS_P1;PMS_P2;Temp;Humidity;BMP_temperature;BMP_pressure;BME280_temperature;BME280_humidity;BME280_pressure;Samples;Min_cycle;Max_cycle;Signal;HPM_P1;HPM_P2
2023/06/17 04:32:15;;;;;;;;;15.50;14.50;;;;;25.13;37.84;100987.78;5018302;27;45457;-76
2023/06/17 04:34:42;;;;;;;;;14.00;13.50;;;;;25.16;37.77;100995.72;5020837;28;45712;-75
2023/06/17 04:37:08;;;;;;;;;18.75;16.75;;;;;25.15;38.20;100985.75;5029067;28;45521;-76
2023/06/17 04:39:34;;;;;;;;;14.50;14.50;;;;;25.18;37.56;100990.91;5034739;28;46292;-74
2023/06/17 04:42:00;;;;;;;;;15.75;14.75;;;;;25.16;37.83;100981.13;5035918;28;45462;-75
2023/06/17 04:44:26;;;;;;;;;17.50;16.00;;;;;25.21;37.82;100987.00;5026106;28;45368;-74
2023/06/17 04:46:52;;;;;;;;;15.75;14.75;;;;;25.18;37.67;100971.69;5011912;28;46310;-75
2023/06/17 04:49:17;;;;;;;;;13.00;13.00;;;;;25.28;37.83;100977.09;5026136;28;46247;-74
2023/06/17 04:51:43;;;;;;;;;15.25;11.75;;;;;25.33;37.83;100980.25;5018126;28;45403;-75
2023/06/17 04:54:08;;;;;;;;;14.75;14.75;;;;;25.35;37.58;100975.44;5028713;28;45956;-75
2023/06/17 04:56:34;;;;;;;;;13.50;13.50;;;;;25.32;37.84;100969.41;5029926;28;45509;-74
2023/06/17 04:58:59;;;;;;;;;12.25;12.25;;;;;25.29;37.75;100966.97;5041052;28;46098;-78
2023/06/17 05:01:24;;;;;;;;;13.75;13.75;;;;;25.32;37.21;100966.66;5035234;28;45506;-75
2023/06/17 05:03:50;;;;;;;;;11.75;11.75;;;;;25.39;37.56;100973.25;5037922;28;45461;-75
2023/06/17 05:06:15;;;;;;;;;14.00;13.00;;;;;25.43;37.58;100966.41;5020411;28;45439;-73
2023/06/17 05:08:41;;;;;;;;;13.50;12.25;;;;;25.47;37.89;100967.81;5015466;28;45634;-75
2023/06/17 05:11:06;;;;;;;;;17.25;15.00;;;;;25.47;37.62;100968.66;5023021;28;45319;-74
2023/06/17 05:13:31;;;;;;;;;14.25;13.00;;;;;25.48;37.83;100962.16;5035839;28;46072;-75
2023/06/17 05:15:57;;;;;;;;;16.00;15.25;;;;;25.55;37.87;100970.59;5021122;28;45388;-74
2023/06/17 05:18:22;;;;;;;;;13.75;13.75;;;;;25.56;37.98;100967.69;5015381;28;45367;-75
2023/06/17 05:20:47;;;;;;;;;12.50;12.50;;;;;25.58;37.58;100967.53;5015169;28;45814;-74
2023/06/17 05:23:12;;;;;;;;;16.50;15.50;;;;;25.60;37.86;100965.53;5015478;28;45249;-74
2023/06/17 05:25:38;;;;;;;;;12.00;12.00;;;;;25.57;37.32;100961.19;5015126;28;45253;-76
2023/06/17 05:28:06;;;;;;;;;14.75;13.75;;;;;25.62;37.71;100969.81;5015234;28;46103;-76
2023/06/17 05:30:32;;;;;;;;;12.50;11.00;;;;;25.62;38.14;100972.56;5018730;28;45396;-74
2023/06/17 05:32:57;;;;;;;;;12.75;11.25;;;;;25.62;37.64;100964.34;5035735;28;45374;-77
2023/06/17 05:35:22;;;;;;;;;16.75;15.50;;;;;25.66;37.45;100969.50;5054818;28;45339;-74
2023/06/17 05:37:48;;;;;;;;;15.50;14.50;;;;;25.68;38.22;100960.09;5015248;28;59464;-74
2023/06/17 05:40:13;;;;;;;;;16.25;16.25;;;;;25.75;38.03;100963.91;5034902;28;45467;-73
2023/06/17 05:42:39;;;;;;;;;13.50;12.25;;;;;25.75;37.38;100955.66;5034933;28;45383;-74
2023/06/17 05:45:04;;;;;;;;;13.50;13.00;;;;;25.72;37.61;100945.00;5034981;28;45337;-75
2023/06/17 05:47:30;;;;;;;;;13.50;13.50;;;;;25.75;37.34;100952.94;5048637;28;45695;-74
2023/06/17 05:49:55;;;;;;;;;15.75;14.50;;;;;25.82;37.23;100964.97;5041136;28;45379;-75
2023/06/17 05:52:20;;;;;;;;;13.50;13.50;;;;;25.84;36.94;100959.31;5035137;28;45510;-74
2023/06/17 05:54:47;;;;;;;;;14.50;13.00;;;;;25.79;37.29;100951.56;5016485;28;46365;-71
2023/06/17 05:57:12;;;;;;;;;11.75;11.50;;;;;25.74;37.16;100966.81;5034640;28;46053;-75
2023/06/17 05:59:38;;;;;;;;;12.00;11.50;;;;;25.70;37.47;100970.91;5034665;28;45288;-76
2023/06/17 06:02:03;;;;;;;;;13.75;13.75;;;;;25.68;36.97;100965.59;5034529;28;45494;-75
2023/06/17 06:04:28;;;;;;;;;12.25;12.25;;;;;25.62;37.32;100968.97;5034479;28;45366;-74
2023/06/17 06:06:54;;;;;;;;;12.75;11.25;;;;;25.62;36.92;100968.97;5016058;28;47735;-72
2023/06/17 06:09:19;;;;;;;;;12.50;12.50;;;;;25.64;37.31;100969.66;5034655;28;45420;-74
2023/06/17 06:11:45;;;;;;;;;13.00;13.00;;;;;25.65;37.75;100967.78;5034264;28;45457;-74
2023/06/17 06:14:10;;;;;;;;;17.50;16.75;;;;;25.66;36.57;100980.50;5034594;28;45458;-77
2023/06/17 06:16:35;;;;;;;;;18.75;16.00;;;;;25.68;37.40;100982.06;5033967;28;45351;-74
2023/06/17 06:19:01;;;;;;;;;13.75;12.25;;;;;25.68;36.89;100978.47;5034490;28;45431;-77
2023/06/17 06:21:26;;;;;;;;;14.50;13.50;;;;;25.63;37.60;100981.66;5034290;28;45657;-74
2023/06/17 06:23:52;;;;;;;;;18.50;13.50;;;;;25.71;37.73;100989.09;5034588;28;45387;-74
2023/06/17 06:26:18;;;;;;;;;9.50;7.50;;;;;25.72;37.17;100993.56;5033972;28;46305;-73
2023/06/17 06:28:43;;;;;;;;;12.75;11.00;;;;;25.67;37.74;100985.84;5034590;28;45332;-74
2023/06/17 06:31:08;;;;;;;;;15.50;14.50;;;;;25.73;38.15;100976.06;5034250;28;45847;-73
2023/06/17 06:33:35;;;;;;;;;17.00;15.25;;;;;25.79;37.73;100968.03;5040918;28;45497;-72
2023/06/17 06:36:00;;;;;;;;;12.75;12.75;;;;;25.90;37.45;100980.63;5033010;28;47004;-73
2023/06/17 06:38:25;;;;;;;;;13.75;13.50;;;;;25.90;37.71;100988.88;5046219;28;45297;-71
2023/06/17 06:40:51;;;;;;;;;18.25;15.75;;;;;25.92;37.31;100989.59;5054174;28;45337;-74
2023/06/17 06:43:16;;;;;;;;;13.50;13.00;;;;;25.91;37.70;100990.59;5054023;28;45329;-74
2023/06/17 06:45:41;;;;;;;;;12.75;12.75;;;;;26.02;37.63;100993.06;5054159;28;45354;-75
2023/06/17 06:48:07;;;;;;;;;12.00;12.00;;;;;26.08;37.41;100994.28;5054054;28;45213;-76
2023/06/17 06:50:34;;;;;;;;;15.50;13.75;;;;;26.08;37.94;101005.28;5035263;28;48199;-73
2023/06/17 06:53:00;;;;;;;;;14.25;13.75;;;;;26.11;37.12;101008.59;5034063;28;45375;-72
2023/06/17 06:55:26;;;;;;;;;14.50;14.50;;;;;26.07;37.47;100987.94;5033724;28;46021;-75
2023/06/17 06:57:51;;;;;;;;;15.50;14.00;;;;;26.20;37.30;100995.75;5034025;28;45444;-76
2023/06/17 07:00:17;;;;;;;;;14.50;12.25;;;;;26.27;37.32;100997.69;5033948;28;45487;-73
2023/06/17 07:02:43;;;;;;;;;16.00;14.50;;;;;26.29;37.62;100986.50;5033641;28;45379;-77
2023/06/17 07:05:08;;;;;;;;;16.25;14.25;;;;;26.35;38.01;101000.47;5033776;28;45449;-77
2023/06/17 07:07:34;;;;;;;;;15.25;14.75;;;;;26.39;37.00;101006.47;5033835;28;45391;-81
2023/06/17 07:09:59;;;;;;;;;12.00;11.50;;;;;26.29;36.99;100986.50;5033903;28;45387;-78
2023/06/17 07:12:24;;;;;;;;;14.25;12.25;;;;;26.22;37.17;101005.50;5031303;28;49839;-78
2023/06/17 07:14:49;;;;;;;;;13.75;13.25;;;;;26.13;37.04;101009.25;5033487;28;45316;-77
2023/06/17 07:17:15;;;;;;;;;13.75;13.75;;;;;26.15;36.96;101004.47;5033933;28;45395;-77
2023/06/17 07:19:40;;;;;;;;;13.50;13.50;;;;;26.19;36.92;101002.25;5033657;28;45532;-76
2023/06/17 07:22:07;;;;;;;;;11.00;9.00;;;;;26.20;37.06;101006.72;5033828;28;45435;-76
2023/06/17 07:24:33;;;;;;;;;16.00;15.00;;;;;26.05;36.97;101003.72;5016007;28;46382;-75
2023/06/17 07:26:58;;;;;;;;;14.25;13.25;;;;;25.89;37.24;100982.50;5046090;28;45359;-75
2023/06/17 07:29:25;;;;;;;;;15.00;13.50;;;;;26.05;36.96;101006.47;5018443;28;45310;-73
2023/06/17 07:31:50;;;;;;;;;12.00;12.00;;;;;26.14;37.26;101005.47;5036278;28;45454;-78
2023/06/17 07:34:15;;;;;;;;;13.25;13.25;;;;;26.11;36.37;100999.47;5048563;28;45397;-77
2023/06/17 07:36:41;;;;;;;;;11.75;11.75;;;;;26.08;37.08;101003.41;5045146;28;45382;-78
2023/06/17 07:39:07;;;;;;;;;12.50;12.50;;;;;26.08;37.14;101008.91;5037384;28;45371;-79
2023/06/17 07:41:33;;;;;;;;;17.00;13.00;;;;;26.06;37.31;101005.44;5020313;28;45426;-74
2023/06/17 07:43:58;;;;;;;;;12.50;11.25;;;;;26.11;37.62;101004.97;5036790;28;45527;-74
2023/06/17 07:46:23;;;;;;;;;15.25;12.00;;;;;26.16;37.06;101013.56;5041150;28;45347;-75
2023/06/17 07:48:49;;;;;;;;;13.00;11.75;;;;;26.21;36.92;101017.53;5052629;28;45874;-76
2023/06/17 07:51:14;;;;;;;;;15.50;12.00;;;;;26.19;36.95;101008.63;5036894;28;45313;-76
2023/06/17 07:53:39;;;;;;;;;12.25;10.75;;;;;26.20;36.33;101006.72;5036738;28;45336;-76
2023/06/17 07:56:05;;;;;;;;;13.75;12.75;;;;;26.26;36.54;101019.84;5036868;28;45362;-76
2023/06/17 07:58:31;;;;;;;;;12.00;11.00;;;;;26.27;36.53;101021.56;5038177;28;45866;-78
2023/06/17 08:00:56;;;;;;;;;13.50;13.00;;;;;26.33;36.47;101015.41;5029166;28;45450;-77
2023/06/17 08:03:22;;;;;;;;;11.50;10.50;;;;;26.33;36.31;101009.91;5047934;28;46059;-73
2023/06/17 08:05:47;;;;;;;;;15.00;13.00;;;;;26.37;36.42;101014.88;5049163;28;45383;-77
2023/06/17 08:08:12;;;;;;;;;11.75;11.75;;;;;26.41;36.38;100998.06;5053226;28;45249;-76
2023/06/17 08:10:38;;;;;;;;;12.25;11.00;;;;;26.49;35.88;101009.09;5040639;28;45308;-77
2023/06/17 08:13:03;;;;;;;;;10.75;10.75;;;;;26.47;36.16;100997.38;5053159;28;45335;-76
2023/06/17 08:15:28;;;;;;;;;11.50;10.75;;;;;26.54;35.67;100996.56;5036351;28;45312;-75
2023/06/17 08:17:54;;;;;;;;;13.25;12.25;;;;;26.63;36.15;101001.03;5036146;28;45262;-76
2023/06/17 08:20:21;;;;;;;;;13.50;12.00;;;;;26.71;36.14;100995.56;5036546;28;45343;-76
2023/06/17 08:22:47;;;;;;;;;12.00;12.00;;;;;26.79;35.46;101002.13;5036119;28;45360;-76
2023/06/17 08:25:12;;;;;;;;;10.00;10.00;;;;;26.82;35.61;100999.03;5018538;28;45304;-76
2023/06/17 08:27:37;;;;;;;;;14.75;13.75;;;;;26.87;34.99;100993.91;5036292;28;45474;-76
2023/06/17 08:30:03;;;;;;;;;13.50;13.50;;;;;26.89;35.38;100989.06;5036036;28;45454;-76
2023/06/17 08:32:29;;;;;;;;;8.75;8.75;;;;;26.92;35.28;100986.00;5035732;28;45287;-76
2023/06/17 08:34:54;;;;;;;;;14.00;13.00;;;;;27.00;34.85;100988.78;5053221;28;45356;-75
2023/06/17 08:37:19;;;;;;;;;12.00;11.00;;;;;27.03;35.54;100975.53;5040434;28;45526;-74
2023/06/17 08:39:45;;;;;;;;;14.00;11.00;;;;;27.13;35.25;100978.13;5035298;28;55276;-76
2023/06/17 08:42:10;;;;;;;;;12.00;12.00;;;;;27.15;35.29;100972.44;5034634;28;45336;-76
2023/06/17 08:44:41;;;;;;;;;12.00;10.00;;;;;27.15;34.63;100984.31;5036055;28;45260;-77
2023/06/17 08:47:06;;;;;;;;;13.25;11.50;;;;;27.19;34.37;100979.31;5046788;28;45708;-76
2023/06/17 08:49:33;;;;;;;;;18.00;12.25;;;;;27.24;33.93;100979.66;5045481;28;45762;-75
2023/06/17 08:52:00;;;;;;;;;14.75;14.75;;;;;27.27;34.09;100974.69;5035525;28;45366;-76
2023/06/17 08:54:30;;;;;;;;;17.00;11.00;;;;;27.32;34.27;100964.00;5035839;28;45348;-76
2023/06/17 08:56:56;;;;;;;;;12.25;12.25;;;;;27.45;34.29;100969.00;5035434;28;45332;-77
2023/06/17 08:59:21;;;;;;;;;12.00;10.75;;;;;27.54;33.85;100967.13;5035682;28;45371;-76
2023/06/17 09:01:48;;;;;;;;;6.75;5.50;;;;;27.57;34.14;100955.72;5017004;28;46977;-76
2023/06/17 09:04:14;;;;;;;;;13.75;13.50;;;;;27.65;34.55;100963.97;5035669;28;45380;-76
2023/06/17 09:06:39;;;;;;;;;14.25;12.25;;;;;27.72;34.49;100965.88;5035361;28;45353;-76
2023/06/17 09:09:05;;;;;;;;;12.00;12.00;;;;;27.75;34.37;100960.00;5035516;28;45347;-76
2023/06/17 09:11:32;;;;;;;;;11.50;11.50;;;;;27.71;34.27;100955.03;5046549;28;46153;-76
2023/06/17 09:13:59;;;;;;;;;18.00;16.00;;;;;27.70;34.62;100959.69;5051589;28;45251;-77
2023/06/17 09:16:36;;;;;;;;;15.00;15.00;;;;;27.76;34.37;100961.72;5036937;28;45255;-77
2023/06/17 09:19:03;;;;;;;;;13.75;13.75;;;;;27.81;34.36;100966.72;5035622;28;45340;-76
2023/06/17 09:21:30;;;;;;;;;17.00;17.00;;;;;27.90;35.24;100960.13;5035126;28;45419;-77
2023/06/17 09:23:56;;;;;;;;;16.50;13.75;;;;;27.93;34.53;100959.75;5035465;28;45534;-75
2023/06/17 09:26:29;;;;;;;;;13.00;11.50;;;;;27.96;35.27;100959.41;5035380;28;45219;-77
2023/06/17 09:29:13;;;;;;;;;15.00;13.50;;;;;27.98;34.91;100962.00;5036096;28;45466;-75
2023/06/17 09:31:50;;;;;;;;;20.00;16.25;;;;;27.93;35.08;100972.69;5035395;28;45379;-76
2023/06/17 09:34:16;;;;;;;;;14.00;13.50;;;;;27.85;35.14;100954.28;5026078;28;45297;-76
2023/06/17 09:36:42;;;;;;;;;13.50;13.25;;;;;27.96;35.71;100962.19;5035534;28;45204;-75
2023/06/17 09:39:12;;;;;;;;;19.75;15.50;;;;;27.90;35.54;100954.63;5017404;28;46187;-74
2023/06/17 09:41:42;;;;;;;;;18.25;15.00;;;;;27.94;35.66;100955.13;5035123;28;45281;-76
2023/06/17 09:44:08;;;;;;;;;14.00;13.25;;;;;28.02;35.27;100960.59;5034960;28;45289;-75
2023/06/17 09:46:39;;;;;;;;;16.75;16.25;;;;;28.08;35.60;100951.59;5023289;28;45336;-75
2023/06/17 09:49:12;;;;;;;;;14.00;12.25;;;;;28.21;35.97;100954.69;5048283;28;45897;-74
2023/06/17 09:51:39;;;;;;;;;14.25;11.75;;;;;28.29;35.86;100951.03;5033736;28;45458;-76
2023/06/17 09:54:05;;;;;;;;;16.00;14.75;;;;;28.31;35.40;100941.56;5034491;28;45592;-75
2023/06/17 09:56:31;;;;;;;;;17.25;16.75;;;;;28.39;35.36;100940.66;5034717;28;45355;-75
2023/06/17 09:58:57;;;;;;;;;17.00;17.00;;;;;28.48;35.51;100945.06;5034990;28;45442;-73
2023/06/17 10:01:30;;;;;;;;;16.75;16.75;;;;;28.63;35.75;100945.16;5015466;28;47155;-75
2023/06/17 10:03:58;;;;;;;;;16.50;14.25;;;;;28.71;36.24;100937.69;5034805;28;45348;-75
2023/06/17 10:06:28;;;;;;;;;18.25;18.25;;;;;28.77;35.03;100950.75;5034859;28;45170;-76
2023/06/17 10:08:53;;;;;;;;;14.50;14.50;;;;;28.79;35.16;100951.44;5016725;28;46077;-73
2023/06/17 10:11:20;;;;;;;;;19.25;18.00;;;;;28.78;35.68;100944.19;5044040;28;45541;-75
2023/06/17 10:14:10;;;;;;;;;21.00;18.50;;;;;28.81;35.51;100943.00;5045513;28;45416;-77
2023/06/17 10:16:40;;;;;;;;;20.00;19.50;;;;;28.81;34.80;100937.47;5034411;28;45462;-74
2023/06/17 10:19:09;;;;;;;;;24.00;20.25;;;;;28.88;35.45;100933.78;5039927;28;45430;-76
2023/06/17 10:21:39;;;;;;;;;18.50;18.50;;;;;28.95;35.25;100929.22;5034576;28;45326;-75
2023/06/17 10:24:06;;;;;;;;;19.50;17.50;;;;;29.05;35.48;100926.22;5034321;28;45470;-76
2023/06/17 10:26:31;;;;;;;;;18.25;17.00;;;;;29.07;34.96;100928.81;5034875;28;45381;-75
2023/06/17 10:29:08;;;;;;;;;16.00;16.00;;;;;29.09;34.72;100924.81;5016775;28;46321;-77
2023/06/17 10:31:39;;;;;;;;;16.50;14.25;;;;;29.06;34.90;100916.91;5034367;28;46276;-75
2023/06/17 10:34:05;;;;;;;;;22.00;17.75;;;;;29.17;34.59;100934.94;5044451;28;45461;-75
2023/06/17 10:36:33;;;;;;;;;21.00;17.25;;;;;29.15;34.94;100924.06;5045062;28;45315;-75
2023/06/17 10:39:10;;;;;;;;;17.50;17.50;;;;;29.22;35.23;100930.56;5016532;28;45613;-76
2023/06/17 10:41:41;;;;;;;;;18.50;18.50;;;;;29.23;35.20;100926.75;5033971;28;45466;-74
2023/06/17 10:44:34;;;;;;;;;22.00;19.50;;;;;29.28;34.63;100929.78;5034266;28;45379;-77
2023/06/17 10:47:01;;;;;;;;;22.25;17.00;;;;;29.30;35.29;100904.75;5044108;28;45403;-76
2023/06/17 10:49:36;;;;;;;;;17.50;17.25;;;;;29.42;35.52;100914.34;5045010;28;45237;-74
2023/06/17 10:52:03;;;;;;;;;20.25;20.25;;;;;29.45;35.10;100907.56;5034042;28;45491;-75
2023/06/17 10:54:30;;;;;;;;;18.75;16.50;;;;;29.46;35.17;100910.16;5034187;28;45321;-76
2023/06/17 10:56:56;;;;;;;;;23.50;20.75;;;;;29.40;34.87;100904.53;5013893;28;45408;-75
2023/06/17 10:59:25;;;;;;;;;26.25;22.00;;;;;29.50;35.37;100905.97;5033973;28;45748;-75
2023/06/17 11:01:51;;;;;;;;;19.00;16.50;;;;;29.54;35.45;100901.75;5033693;28;46097;-76
2023/06/17 11:04:17;;;;;;;;;21.00;18.00;;;;;29.55;34.76;100905.38;5035128;28;45367;-76
2023/06/17 11:06:45;;;;;;;;;16.50;16.00;;;;;29.59;34.71;100898.44;5037574;28;45269;-75
2023/06/17 11:09:11;;;;;;;;;18.50;16.25;;;;;29.68;34.79;100898.16;5037517;28;45371;-76
2023/06/17 11:11:36;;;;;;;;;16.75;16.50;;;;;29.75;35.17;100898.25;5049638;28;46197;-77
2023/06/17 11:14:02;;;;;;;;;17.50;16.25;;;;;29.87;34.74;100884.78;5046980;28;45328;-75
2023/06/17 11:16:29;;;;;;;;;15.25;14.50;;;;;29.90;34.11;100887.19;5019385;28;45546;-77
2023/06/17 11:18:54;;;;;;;;;15.75;15.75;;;;;29.85;34.40;100873.94;5037405;28;45271;-75
2023/06/17 11:21:20;;;;;;;;;21.75;16.25;;;;;29.94;34.53;100894.09;5037223;28;45530;-76
2023/06/17 11:23:45;;;;;;;;;18.00;16.75;;;;;29.94;34.49;100886.63;5037479;28;45309;-76
2023/06/17 11:26:12;;;;;;;;;21.00;17.50;;;;;29.93;34.34;100867.44;5037373;28;45292;-74
2023/06/17 11:28:39;;;;;;;;;18.75;14.75;;;;;29.96;33.87;100856.88;5037418;28;45505;-76
2023/06/17 11:31:05;;;;;;;;;21.50;20.00;;;;;30.05;34.00;100864.00;5036735;28;45341;-75
2023/06/17 11:33:32;;;;;;;;;21.75;17.25;;;;;30.14;33.82;100862.00;5042003;28;45315;-75
2023/06/17 11:35:58;;;;;;;;;18.75;17.50;;;;;30.15;34.36;100858.19;5053201;28;45458;-77
2023/06/17 11:38:25;;;;;;;;;20.00;18.50;;;;;30.15;33.64;100860.09;5036928;28;45673;-75
2023/06/17 11:40:55;;;;;;;;;17.25;17.25;;;;;30.17;33.41;100858.00;5036788;28;45358;-77
2023/06/17 11:43:25;;;;;;;;;21.00;17.75;;;;;30.26;34.16;100854.06;5018939;28;45365;-76
2023/06/17 11:45:53;;;;;;;;;14.50;13.75;;;;;30.20;32.58;100838.25;5037330;28;45463;-76
2023/06/17 11:48:19;;;;;;;;;19.00;14.00;;;;;30.27;33.31;100841.94;5056738;28;45371;-74
2023/06/17 11:50:45;;;;;;;;;19.00;15.00;;;;;30.35;33.54;100836.28;5036953;28;45278;-74
2023/06/17 11:53:11;;;;;;;;;18.00;16.25;;;;;30.45;33.41;100834.88;5019178;28;45294;-74
2023/06/17 11:55:36;;;;;;;;;21.00;19.50;;;;;30.49;34.16;100829.81;5036843;28;45375;-75
2023/06/17 11:58:04;;;;;;;;;15.50;12.75;;;;;30.64;32.55;100843.59;5036795;28;45362;-77
2023/06/17 12:00:35;;;;;;;;;17.25;14.00;;;;;30.66;33.04;100838.75;5037035;28;45381;-75
2023/06/17 12:03:02;;;;;;;;;13.50;12.00;;;;;30.70;32.74;100856.69;5036113;28;45450;-76
2023/06/17 12:05:28;;;;;;;;;16.25;13.75;;;;;30.77;32.84;100849.28;5036926;28;45281;-77
2023/06/17 12:07:58;;;;;;;;;15.25;14.25;;;;;30.82;32.81;100841.22;5018689;28;45423;-75
2023/06/17 12:10:25;;;;;;;;;13.50;13.25;;;;;30.84;32.24;100831.69;5038482;28;46168;-75
2023/06/17 12:12:54;;;;;;;;;14.25;13.50;;;;;30.88;32.69;100839.59;5054572;28;45529;-75
2023/06/17 12:15:26;;;;;;;;;14.25;14.25;;;;;30.91;32.40;100841.94;5018417;28;45388;-75
2023/06/17 12:17:51;;;;;;;;;18.25;15.00;;;;;30.97;32.59;100830.91;5036228;28;45477;-76
2023/06/17 12:20:19;;;;;;;;;10.25;8.75;;;;;31.09;32.47;100836.78;5036312;28;45316;-74
2023/06/17 12:22:46;;;;;;;;;15.25;14.00;;;;;31.08;31.72;100833.16;5036520;28;45286;-75
2023/06/17 12:25:12;;;;;;;;;15.00;13.75;;;;;31.12;30.97;100820.66;5035528;28;45374;-75
2023/06/17 12:27:38;;;;;;;;;19.25;14.75;;;;;31.19;31.12;100831.75;5039213;28;45446;-76
2023/06/17 12:30:08;;;;;;;;;13.75;13.00;;;;;31.25;31.41;100836.47;5036219;28;46377;-76
2023/06/17 12:32:34;;;;;;;;;17.75;15.50;;;;;31.24;31.38;100840.31;5035705;28;45282;-75
2023/06/17 12:34:59;;;;;;;;;17.75;17.50;;;;;31.16;31.55;100818.31;5054148;28;45399;-75
2023/06/17 12:37:32;;;;;;;;;15.75;15.75;;;;;31.13;32.36;100827.03;5038778;28;45328;-75
2023/06/17 12:40:00;;;;;;;;;18.50;14.75;;;;;31.01;32.08;100820.31;5035967;28;45431;-75
2023/06/17 12:42:26;;;;;;;;;14.50;14.50;;;;;31.01;31.85;100828.59;5036139;28;45454;-77
2023/06/17 12:44:52;;;;;;;;;15.00;15.00;;;;;31.01;32.65;100818.38;5018320;28;45276;-77
2023/06/17 12:47:20;;;;;;;;;19.50;17.00;;;;;31.03;32.46;100826.50;5047603;28;45394;-76
2023/06/17 12:49:46;;;;;;;;;21.50;17.50;;;;;31.02;32.12;100819.25;5043681;28;45455;-76
2023/06/17 12:52:11;;;;;;;;;14.50;14.50;;;;;31.07;32.13;100817.59;5035910;28;45381;-77
2023/06/17 12:54:37;;;;;;;;;15.50;15.25;;;;;31.02;32.52;100806.25;5035923;28;45319;-74
2023/06/17 12:57:03;;;;;;;;;20.00;18.50;;;;;31.09;32.12;100801.66;5035623;28;47622;-76
2023/06/17 12:59:31;;;;;;;;;19.00;16.75;;;;;31.22;31.93;100800.88;5035260;28;46315;-76
2023/06/17 13:01:57;;;;;;;;;14.50;13.25;;;;;31.46;31.84;100800.41;5035359;28;45356;-76
2023/06/17 13:04:23;;;;;;;;;17.75;15.00;;;;;31.66;30.96;100796.88;5035917;28;45336;-75
2023/06/17 13:06:48;;;;;;;;;17.75;13.75;;;;;31.78;30.77;100793.31;5035653;28;45529;-76
2023/06/17 13:09:14;;;;;;;;;18.00;17.00;;;;;31.79;30.41;100797.81;5035517;28;45867;-76
2023/06/17 13:11:42;;;;;;;;;16.75;16.00;;;;;31.74;30.60;100792.00;5048162;28;45419;-76
2023/06/17 13:14:07;;;;;;;;;19.75;18.75;;;;;31.59;30.70;100794.03;5043881;28;45370;-76
2023/06/17 13:16:33;;;;;;;;;16.25;14.25;;;;;31.51;30.20;100791.44;5035326;28;45536;-77
2023/06/17 13:18:58;;;;;;;;;14.50;14.50;;;;;31.39;30.89;100782.84;5017652;28;47107;-76
2023/06/17 13:21:25;;;;;;;;;17.75;15.25;;;;;31.35;30.92;100789.03;5035396;28;45381;-78
2023/06/17 13:23:50;;;;;;;;;20.50;15.00;;;;;31.24;31.08;100792.34;5035820;28;45369;-75
2023/06/17 13:26:26;;;;;;;;;14.50;13.50;;;;;31.10;31.12;100789.50;5016859;28;45674;-76
2023/06/17 13:28:52;;;;;;;;;14.75;14.75;;;;;31.05;31.35;100791.16;5035506;28;45324;-76
2023/06/17 13:31:17;;;;;;;;;14.00;14.00;;;;;30.97;31.43;100786.59;5035021;28;45204;-77
2023/06/17 13:33:42;;;;;;;;;15.25;15.25;;;;;30.92;31.30;100779.97;5042734;28;45203;-75
2023/06/17 13:36:08;;;;;;;;;15.75;15.75;;;;;30.97;31.66;100789.38;5049239;28;45471;-76
2023/06/17 13:38:33;;;;;;;;;14.25;14.25;;;;;31.04;31.74;100801.38;5035131;28;45319;-75
2023/06/17 13:40:58;;;;;;;;;13.00;11.75;;;;;31.09;32.95;100804.41;5034988;28;45426;-76
2023/06/17 13:43:24;;;;;;;;;13.75;12.25;;;;;31.26;32.27;100799.41;5035540;28;45245;-76
2023/06/17 13:45:50;;;;;;;;;14.50;14.00;;;;;31.41;32.30;100794.59;5035406;28;45560;-75
2023/06/17 13:48:17;;;;;;;;;12.75;12.50;;;;;31.51;32.66;100781.22;5054842;28;45242;-75
2023/06/17 13:50:42;;;;;;;;;14.25;14.25;;;;;31.72;32.78;100777.53;5035030;28;45345;-76
2023/06/17 13:53:07;;;;;;;;;21.00;17.50;;;;;31.98;31.80;100781.44;5035090;28;45411;-76
2023/06/17 13:55:33;;;;;;;;;12.50;12.50;;;;;32.19;31.54;100773.84;5034445;28;45438;-75
2023/06/17 13:57:58;;;;;;;;;15.25;14.50;;;;;32.45;31.58;100761.06;5035226;28;45587;-75
2023/06/17 14:00:25;;;;;;;;;13.00;11.25;;;;;32.66;31.32;100755.31;5034731;28;45324;-77
2023/06/17 14:02:50;;;;;;;;;21.00;16.00;;;;;32.74;30.49;100757.91;5034847;28;45348;-74
2023/06/17 14:05:16;;;;;;;;;16.50;16.50;;;;;32.70;30.16;100762.16;5034534;28;45685;-75
2023/06/17 14:07:42;;;;;;;;;15.25;14.25;;;;;32.55;29.92;100764.28;5016824;28;47200;-74
2023/06/17 14:10:08;;;;;;;;;17.50;16.50;;;;;32.33;30.36;100765.56;5034604;28;45225;-75
2023/06/17 14:12:33;;;;;;;;;13.75;13.75;;;;;32.20;29.77;100763.59;5016858;28;45555;-76
2023/06/17 14:14:58;;;;;;;;;14.75;13.75;;;;;32.08;29.54;100757.78;5034656;28;45285;-75
2023/06/17 14:17:24;;;;;;;;;17.00;15.25;;;;;31.89;30.57;100751.13;5051836;28;46015;-76
2023/06/17 14:19:50;;;;;;;;;18.75;18.00;;;;;31.84;30.19;100759.22;5034544;28;45350;-71
2023/06/17 14:22:15;;;;;;;;;16.50;16.50;;;;;31.69;30.57;100758.53;5034904;28;45431;-78
2023/06/17 14:24:40;;;;;;;;;21.50;21.25;;;;;31.31;31.05;100755.31;5034271;28;45492;-78
2023/06/17 14:27:33;;;;;;;;;16.00;15.75;;;;;31.33;31.98;100775.38;5034561;28;45581;-77
2023/06/17 14:29:59;;;;;;;;;14.75;14.75;;;;;31.24;34.42;100770.19;5027906;28;45334;-75
2023/06/17 14:32:24;;;;;;;;;18.25;17.50;;;;;31.23;36.76;100799.81;5054075;28;45236;-76
2023/06/17 14:34:50;;;;;;;;;15.25;14.25;;;;;31.08;37.14;100804.63;5026238;28;50562;-76
2023/06/17 14:37:16;;;;;;;;;19.25;19.25;;;;;30.81;40.87;100797.97;5032914;28;45378;-80
2023/06/17 14:39:42;;;;;;;;;17.00;16.00;;;;;30.73;41.36;100821.13;5014410;28;45449;-79
2023/06/17 14:42:07;;;;;;;;;19.00;16.25;;;;;30.63;43.87;100815.06;5034894;28;45432;-82
2023/06/17 14:44:33;;;;;;;;;20.50;18.00;;;;;30.56;42.64;100819.69;5042746;28;45355;-80
2023/06/17 14:46:58;;;;;;;;;22.50;21.25;;;;;30.45;43.64;100801.69;5048435;28;45457;-78
2023/06/17 14:49:23;;;;;;;;;14.75;13.25;;;;;30.67;43.49;100790.63;5045077;28;45443;-75
2023/06/17 14:51:50;;;;;;;;;13.75;12.75;;;;;30.82;41.98;100796.94;5042172;28;45521;-77
2023/06/17 14:54:16;;;;;;;;;12.25;11.50;;;;;30.88;41.20;100790.59;5041083;28;45316;-78
2023/06/17 14:56:41;;;;;;;;;16.25;12.25;;;;;30.83;41.35;100771.81;5028689;28;46038;-78
2023/06/17 14:59:07;;;;;;;;;15.00;11.50;;;;;30.87;41.15;100757.59;5033294;28;45354;-82
2023/06/17 15:01:35;;;;;;;;;17.25;14.00;;;;;30.95;41.69;100771.28;5033953;28;45535;-79
2023/06/17 15:04:02;;;;;;;;;14.25;14.25;;;;;30.87;41.75;100766.75;5038075;28;45490;-80
2023/06/17 15:06:27;;;;;;;;;18.50;14.00;;;;;30.79;41.46;100751.13;5047763;28;46333;-82
2023/06/17 15:09:29;;;;;;;;;11.75;10.50;;;;;30.95;39.97;100766.59;5016066;28;45462;-81
2023/06/17 15:11:59;;;;;;;;;12.25;11.00;;;;;31.05;40.59;100764.28;5053961;28;45464;-77
2023/06/17 15:14:30;;;;;;;;;9.25;9.25;;;;;31.14;39.32;100756.72;5038622;28;45551;-77
2023/06/17 15:16:56;;;;;;;;;8.50;8.50;;;;;31.25;39.08;100742.28;5033561;28;46113;-76
2023/06/17 15:19:22;;;;;;;;;10.25;9.25;;;;;31.51;38.29;100753.50;5033437;28;45504;-75
2023/06/17 15:21:48;;;;;;;;;12.00;8.75;;;;;31.68;38.42;100751.25;5013980;28;45891;-79
2023/06/17 15:24:13;;;;;;;;;10.00;9.25;;;;;31.91;38.31;100759.22;5049664;28;46830;-77
2023/06/17 15:26:39;;;;;;;;;11.00;9.00;;;;;32.16;37.01;100759.53;5046821;28;46128;-81
2023/06/17 15:29:06;;;;;;;;;11.00;11.00;;;;;32.24;37.55;100756.56;5048752;28;45527;-77
2023/06/17 15:31:32;;;;;;;;;11.25;11.25;;;;;32.41;36.95;100762.56;5033195;28;45589;-73
2023/06/17 15:34:00;;;;;;;;;12.25;12.00;;;;;32.51;36.07;100757.44;5033036;28;45347;-77
2023/06/17 15:36:27;;;;;;;;;10.00;10.00;;;;;32.45;36.11;100734.16;5020534;28;46695;-78
2023/06/17 15:38:53;;;;;;;;;9.25;8.25;;;;;32.72;36.66;100745.28;5036927;28;45443;-78